Terminal Aerodrome Forecast
Issued by NWS

Home | Current Version | Previous Version | Text Only | Print | Product List | Glossary On
Versions: 1 2 3 4 5 6 7 8 9 10 11 12 13 14 15 16 17 18 19 20 21 22 23 24 25
944
FTUS41 KBGM 050924 AAB
TAFRME
TAF AMD
KRME 050924Z 0509/0606 11008KT 3SM -SN OVC025
      TEMPO 0509/0513 1 1/2SM -SN OVC012
     FM051500 19006KT P6SM OVC015
     FM051800 26009G16KT P6SM SCT015 OVC025
     FM060200 27005KT P6SM BKN015=

USA.gov is the U.S. government's official web portal to all federal, state and local government web resources and services.